sensor_id;sensor_type;location;lat;lon;timestamp;pressure;altitude;pressure_sealevel;temperature;humidity
36798;BME280;22748;8.426;99.512;2023-07-31T00:02:01;100578.16;;;29.47;67.02
36798;BME280;22748;8.426;99.512;2023-07-31T00:04:37;100583.75;;;29.46;67.21
36798;BME280;22748;8.426;99.512;2023-07-31T00:07:09;100584.91;;;29.18;67.66
36798;BME280;22748;8.426;99.512;2023-07-31T00:09:39;100597.28;;;29.26;67.41
36798;BME280;22748;8.426;99.512;2023-07-31T00:12:12;100598.94;;;29.33;67.73
36798;BME280;22748;8.426;99.512;2023-07-31T00:14:43;100602.63;;;29.39;67.87
36798;BME280;22748;8.426;99.512;2023-07-31T00:17:14;100604.72;;;29.30;67.51
36798;BME280;22748;8.426;99.512;2023-07-31T00:19:45;100616.13;;;29.26;68.19
36798;BME280;22748;8.426;99.512;2023-07-31T00:22:19;100630.81;;;29.30;68.02
36798;BME280;22748;8.426;99.512;2023-07-31T00:24:56;100627.47;;;29.35;68.29
36798;BME280;22748;8.426;99.512;2023-07-31T00:27:28;100623.31;;;29.39;68.57
36798;BME280;22748;8.426;99.512;2023-07-31T00:29:59;100624.97;;;29.40;68.25
36798;BME280;22748;8.426;99.512;2023-07-31T00:32:29;100631.00;;;29.28;68.62
36798;BME280;22748;8.426;99.512;2023-07-31T00:35:00;100633.28;;;29.31;68.83
36798;BME280;22748;8.426;99.512;2023-07-31T00:37:32;100641.53;;;29.37;68.83
36798;BME280;22748;8.426;99.512;2023-07-31T00:40:03;100655.59;;;29.39;68.97
36798;BME280;22748;8.426;99.512;2023-07-31T00:42:34;100648.56;;;29.44;68.41
36798;BME280;22748;8.426;99.512;2023-07-31T00:45:05;100655.59;;;29.39;68.88
36798;BME280;22748;8.426;99.512;2023-07-31T00:47:40;100655.19;;;29.35;69.18
36798;BME280;22748;8.426;99.512;2023-07-31T00:50:11;100660.97;;;29.39;69.61
36798;BME280;22748;8.426;99.512;2023-07-31T00:52:45;100658.47;;;29.44;69.28
36798;BME280;22748;8.426;99.512;2023-07-31T00:55:15;100659.28;;;29.51;69.29
36798;BME280;22748;8.426;99.512;2023-07-31T00:57:50;100665.50;;;29.51;69.90
36798;BME280;22748;8.426;99.512;2023-07-31T01:00:27;100667.09;;;29.59;69.62
36798;BME280;22748;8.426;99.512;2023-07-31T01:02:57;100672.28;;;29.61;69.55
36798;BME280;22748;8.426;99.512;2023-07-31T01:05:36;100659.25;;;29.64;69.16
36798;BME280;22748;8.426;99.512;2023-07-31T01:08:21;100669.19;;;29.64;69.31
36798;BME280;22748;8.426;99.512;2023-07-31T01:10:58;100672.09;;;29.69;69.63
36798;BME280;22748;8.426;99.512;2023-07-31T01:13:43;100676.22;;;29.71;70.13
36798;BME280;22748;8.426;99.512;2023-07-31T01:16:14;100681.16;;;29.74;70.25
36798;BME280;22748;8.426;99.512;2023-07-31T01:18:44;100683.22;;;29.79;70.22
36798;BME280;22748;8.426;99.512;2023-07-31T01:21:37;100677.81;;;29.86;69.97
36798;BME280;22748;8.426;99.512;2023-07-31T01:24:20;100677.38;;;29.89;70.61
36798;BME280;22748;8.426;99.512;2023-07-31T01:26:57;100689.16;;;29.94;70.59
36798;BME280;22748;8.426;99.512;2023-07-31T01:29:38;100693.28;;;29.97;70.70
36798;BME280;22748;8.426;99.512;2023-07-31T01:32:12;100698.63;;;30.04;70.19
36798;BME280;22748;8.426;99.512;2023-07-31T01:34:45;100693.81;;;30.12;70.00
36798;BME280;22748;8.426;99.512;2023-07-31T01:37:16;100692.97;;;30.19;70.14
36798;BME280;22748;8.426;99.512;2023-07-31T01:40:01;100701.22;;;30.24;70.03
36798;BME280;22748;8.426;99.512;2023-07-31T01:42:37;100696.66;;;30.24;69.95
36798;BME280;22748;8.426;99.512;2023-07-31T01:45:08;100698.72;;;30.29;69.51
36798;BME280;22748;8.426;99.512;2023-07-31T01:47:39;100692.91;;;30.32;69.18
36798;BME280;22748;8.426;99.512;2023-07-31T01:50:16;100688.28;;;30.39;69.52
36798;BME280;22748;8.426;99.512;2023-07-31T01:52:46;100691.16;;;30.44;69.50
36798;BME280;22748;8.426;99.512;2023-07-31T01:55:17;100691.56;;;30.48;69.47
36798;BME280;22748;8.426;99.512;2023-07-31T01:57:50;100693.81;;;30.51;68.95
36798;BME280;22748;8.426;99.512;2023-07-31T02:00:22;100700.13;;;30.38;69.03
36798;BME280;22748;8.426;99.512;2023-07-31T02:02:53;100693.44;;;30.47;68.99
36798;BME280;22748;8.426;99.512;2023-07-31T02:05:22;100702.28;;;30.54;68.66
36798;BME280;22748;8.426;99.512;2023-07-31T02:08:08;100705.97;;;30.60;68.62
36798;BME280;22748;8.426;99.512;2023-07-31T02:10:51;100699.94;;;30.65;68.28
36798;BME280;22748;8.426;99.512;2023-07-31T02:13:28;100709.44;;;30.67;67.94
36798;BME280;22748;8.426;99.512;2023-07-31T02:16:04;100707.56;;;30.68;67.95
36798;BME280;22748;8.426;99.512;2023-07-31T02:21:32;100709.84;;;30.71;68.35
36798;BME280;22748;8.426;99.512;2023-07-31T02:24:02;100715.38;;;30.76;68.23
36798;BME280;22748;8.426;99.512;2023-07-31T02:26:32;100718.25;;;30.81;68.50
36798;BME280;22748;8.426;99.512;2023-07-31T02:29:04;100713.44;;;30.83;68.39
36798;BME280;22748;8.426;99.512;2023-07-31T02:31:35;100708.31;;;30.82;68.16
36798;BME280;22748;8.426;99.512;2023-07-31T02:34:05;100697.88;;;30.85;67.99
36798;BME280;22748;8.426;99.512;2023-07-31T02:36:36;100702.88;;;30.88;67.94
36798;BME280;22748;8.426;99.512;2023-07-31T02:39:07;100692.09;;;30.88;67.87
36798;BME280;22748;8.426;99.512;2023-07-31T02:41:42;100695.41;;;30.90;67.49
36798;BME280;22748;8.426;99.512;2023-07-31T02:44:15;100687.53;;;30.89;67.75
36798;BME280;22748;8.426;99.512;2023-07-31T02:46:51;100687.91;;;30.92;67.96
36798;BME280;22748;8.426;99.512;2023-07-31T02:49:22;100684.75;;;30.95;67.29
36798;BME280;22748;8.426;99.512;2023-07-31T02:51:52;100686.19;;;30.98;67.71
36798;BME280;22748;8.426;99.512;2023-07-31T02:54:29;100679.31;;;31.02;67.26
36798;BME280;22748;8.426;99.512;2023-07-31T02:56:59;100672.41;;;31.06;67.05
36798;BME280;22748;8.426;99.512;2023-07-31T02:59:32;100675.72;;;31.08;67.20
36798;BME280;22748;8.426;99.512;2023-07-31T03:02:03;100671.16;;;31.09;66.77
36798;BME280;22748;8.426;99.512;2023-07-31T03:04:43;100663.66;;;31.11;66.63
36798;BME280;22748;8.426;99.512;2023-07-31T03:07:14;100672.34;;;31.13;66.93
36798;BME280;22748;8.426;99.512;2023-07-31T03:09:44;100666.50;;;31.16;66.99
36798;BME280;22748;8.426;99.512;2023-07-31T03:12:20;100659.59;;;31.20;66.78
36798;BME280;22748;8.426;99.512;2023-07-31T03:14:53;100652.72;;;31.24;66.70
36798;BME280;22748;8.426;99.512;2023-07-31T03:17:23;100646.91;;;31.27;66.76
36798;BME280;22748;8.426;99.512;2023-07-31T03:19:55;100641.03;;;31.30;66.24
36798;BME280;22748;8.426;99.512;2023-07-31T03:22:31;100634.97;;;31.35;66.46
36798;BME280;22748;8.426;99.512;2023-07-31T03:25:03;100633.06;;;31.35;66.36
36798;BME280;22748;8.426;99.512;2023-07-31T03:27:38;100632.19;;;31.42;65.62
36798;BME280;22748;8.426;99.512;2023-07-31T03:30:23;100635.06;;;31.47;65.77
36798;BME280;22748;8.426;99.512;2023-07-31T03:32:53;100636.84;;;31.53;65.07
36798;BME280;22748;8.426;99.512;2023-07-31T03:35:25;100636.84;;;31.53;64.60
36798;BME280;22748;8.426;99.512;2023-07-31T03:37:56;100635.34;;;31.57;64.78
36798;BME280;22748;8.426;99.512;2023-07-31T03:40:26;100641.00;;;31.55;64.51
36798;BME280;22748;8.426;99.512;2023-07-31T03:42:56;100639.91;;;31.56;64.34
36798;BME280;22748;8.426;99.512;2023-07-31T03:45:28;100634.06;;;31.60;64.56
36798;BME280;22748;8.426;99.512;2023-07-31T03:47:58;100634.00;;;31.66;64.33
36798;BME280;22748;8.426;99.512;2023-07-31T03:50:29;100627.31;;;31.69;63.99
36798;BME280;22748;8.426;99.512;2023-07-31T03:53:00;100629.75;;;31.70;63.36
36798;BME280;22748;8.426;99.512;2023-07-31T03:55:31;100629.53;;;31.72;63.05
36798;BME280;22748;8.426;99.512;2023-07-31T03:58:02;100634.25;;;31.76;63.09
36798;BME280;22748;8.426;99.512;2023-07-31T04:00:34;100631.34;;;31.78;62.40
36798;BME280;22748;8.426;99.512;2023-07-31T04:03:04;100629.44;;;31.78;62.83
36798;BME280;22748;8.426;99.512;2023-07-31T04:05:38;100620.44;;;31.85;62.51
36798;BME280;22748;8.426;99.512;2023-07-31T04:08:09;100619.53;;;31.91;62.68
36798;BME280;22748;8.426;99.512;2023-07-31T04:10:39;100606.78;;;31.98;62.17
36798;BME280;22748;8.426;99.512;2023-07-31T04:13:09;100610.88;;;32.01;62.66
36798;BME280;22748;8.426;99.512;2023-07-31T04:15:41;100617.69;;;32.03;62.10
36798;BME280;22748;8.426;99.512;2023-07-31T04:18:13;100631.44;;;32.02;62.21
36798;BME280;22748;8.426;99.512;2023-07-31T04:20:44;100619.56;;;32.03;62.38
36798;BME280;22748;8.426;99.512;2023-07-31T04:23:15;100619.72;;;32.08;62.25
36798;BME280;22748;8.426;99.512;2023-07-31T04:25:45;100621.38;;;32.09;62.89
36798;BME280;22748;8.426;99.512;2023-07-31T04:28:15;100620.66;;;32.13;62.54
36798;BME280;22748;8.426;99.512;2023-07-31T04:30:47;100626.66;;;32.15;61.00
36798;BME280;22748;8.426;99.512;2023-07-31T04:33:18;100625.03;;;32.14;60.69
36798;BME280;22748;8.426;99.512;2023-07-31T04:35:52;100626.44;;;32.17;60.13
36798;BME280;22748;8.426;99.512;2023-07-31T04:38:23;100622.44;;;32.20;60.36
36798;BME280;22748;8.426;99.512;2023-07-31T04:40:59;100627.97;;;32.25;60.74
36798;BME280;22748;8.426;99.512;2023-07-31T04:43:30;100624.22;;;32.26;62.20
36798;BME280;22748;8.426;99.512;2023-07-31T04:46:03;100622.81;;;32.23;62.85
36798;BME280;22748;8.426;99.512;2023-07-31T04:48:34;100620.22;;;32.16;63.47
36798;BME280;22748;8.426;99.512;2023-07-31T04:51:05;100610.44;;;32.15;63.42
36798;BME280;22748;8.426;99.512;2023-07-31T04:53:37;100619.63;;;32.14;64.06
36798;BME280;22748;8.426;99.512;2023-07-31T04:56:08;100618.44;;;32.10;63.68
36798;BME280;22748;8.426;99.512;2023-07-31T04:58:42;100625.03;;;32.14;64.07
36798;BME280;22748;8.426;99.512;2023-07-31T05:01:18;100642.88;;;32.15;64.58
36798;BME280;22748;8.426;99.512;2023-07-31T05:03:49;100639.47;;;32.20;64.13
36798;BME280;22748;8.426;99.512;2023-07-31T05:06:19;100624.56;;;32.17;64.04
36798;BME280;22748;8.426;99.512;2023-07-31T05:08:50;100620.81;;;32.18;64.06
36798;BME280;22748;8.426;99.512;2023-07-31T05:11:21;100663.44;;;32.16;64.15
36798;BME280;22748;8.426;99.512;2023-07-31T05:13:51;100650.84;;;32.10;64.81
36798;BME280;22748;8.426;99.512;2023-07-31T05:16:29;100675.03;;;32.05;65.35
36798;BME280;22748;8.426;99.512;2023-07-31T05:19:00;100669.72;;;31.98;65.32
36798;BME280;22748;8.426;99.512;2023-07-31T05:21:31;100656.44;;;31.97;64.71
36798;BME280;22748;8.426;99.512;2023-07-31T05:24:01;100653.56;;;31.92;63.62
36798;BME280;22748;8.426;99.512;2023-07-31T05:26:38;100653.94;;;31.65;62.39
36798;BME280;22748;8.426;99.512;2023-07-31T05:29:08;100637.34;;;31.62;61.80
36798;BME280;22748;8.426;99.512;2023-07-31T05:31:41;100626.13;;;31.65;61.74
36798;BME280;22748;8.426;99.512;2023-07-31T05:34:14;100628.09;;;31.58;61.52
36798;BME280;22748;8.426;99.512;2023-07-31T05:36:46;100641.13;;;31.61;61.69
36798;BME280;22748;8.426;99.512;2023-07-31T05:39:17;100646.13;;;31.57;61.02
36798;BME280;22748;8.426;99.512;2023-07-31T05:41:48;100658.59;;;31.58;61.06
36798;BME280;22748;8.426;99.512;2023-07-31T05:44:22;100658.59;;;31.58;60.77
36798;BME280;22748;8.426;99.512;2023-07-31T05:46:54;100661.03;;;31.60;60.84
36798;BME280;22748;8.426;99.512;2023-07-31T05:49:31;100655.28;;;31.56;61.81
36798;BME280;22748;8.426;99.512;2023-07-31T05:52:02;100649.50;;;31.52;61.89
36798;BME280;22748;8.426;99.512;2023-07-31T05:54:33;100645.53;;;31.55;61.47
36798;BME280;22748;8.426;99.512;2023-07-31T05:57:04;100634.91;;;31.60;61.45
36798;BME280;22748;8.426;99.512;2023-07-31T05:59:40;100638.41;;;31.61;61.39
36798;BME280;22748;8.426;99.512;2023-07-31T06:02:11;100629.03;;;31.63;61.19
36798;BME280;22748;8.426;99.512;2023-07-31T06:04:41;100630.22;;;31.67;61.29
36798;BME280;22748;8.426;99.512;2023-07-31T06:07:11;100633.53;;;31.69;61.17
36798;BME280;22748;8.426;99.512;2023-07-31T06:09:41;100629.75;;;31.70;60.86
36798;BME280;22748;8.426;99.512;2023-07-31T06:12:13;100624.59;;;31.69;60.89
36798;BME280;22748;8.426;99.512;2023-07-31T06:14:46;100626.47;;;31.68;61.09
36798;BME280;22748;8.426;99.512;2023-07-31T06:17:20;100627.53;;;31.67;61.18
36798;BME280;22748;8.426;99.512;2023-07-31T06:19:50;100614.84;;;31.68;61.09
36798;BME280;22748;8.426;99.512;2023-07-31T06:22:21;100614.03;;;31.67;60.91
36798;BME280;22748;8.426;99.512;2023-07-31T06:24:52;100615.66;;;31.68;60.71
36798;BME280;22748;8.426;99.512;2023-07-31T06:27:23;100606.31;;;31.71;60.66
36798;BME280;22748;8.426;99.512;2023-07-31T06:29:57;100605.03;;;31.73;60.31
36798;BME280;22748;8.426;99.512;2023-07-31T06:32:27;100601.50;;;31.73;60.32
36798;BME280;22748;8.426;99.512;2023-07-31T06:34:58;100605.63;;;31.75;60.19
36798;BME280;22748;8.426;99.512;2023-07-31T06:37:30;100604.81;;;31.75;59.41
36798;BME280;22748;8.426;99.512;2023-07-31T06:40:01;100603.97;;;31.74;60.11
36798;BME280;22748;8.426;99.512;2023-07-31T06:42:32;100602.91;;;31.75;59.95
36798;BME280;22748;8.426;99.512;2023-07-31T06:45:02;100593.16;;;31.74;60.11
36798;BME280;22748;8.426;99.512;2023-07-31T06:47:41;100591.66;;;31.78;60.40
36798;BME280;22748;8.426;99.512;2023-07-31T06:50:23;100591.81;;;31.84;60.78
36798;BME280;22748;8.426;99.512;2023-07-31T06:52:54;100581.81;;;31.84;60.77
36798;BME280;22748;8.426;99.512;2023-07-31T06:55:25;100572.19;;;31.88;61.12
36798;BME280;22748;8.426;99.512;2023-07-31T06:57:56;100561.16;;;31.90;61.12
36798;BME280;22748;8.426;99.512;2023-07-31T07:00:28;100551.41;;;31.89;61.14
36798;BME280;22748;8.426;99.512;2023-07-31T07:03:00;100546.00;;;31.89;61.26
36798;BME280;22748;8.426;99.512;2023-07-31T07:05:30;100545.53;;;31.92;61.20
36798;BME280;22748;8.426;99.512;2023-07-31T07:08:00;100525.13;;;31.96;60.71
36798;BME280;22748;8.426;99.512;2023-07-31T07:10:36;100513.88;;;31.99;59.96
36798;BME280;22748;8.426;99.512;2023-07-31T07:13:06;100511.78;;;32.01;60.32
36798;BME280;22748;8.426;99.512;2023-07-31T07:15:37;100500.50;;;32.04;60.17
36798;BME280;22748;8.426;99.512;2023-07-31T07:18:09;100501.69;;;32.08;59.98
36798;BME280;22748;8.426;99.512;2023-07-31T07:20:40;100502.28;;;32.10;60.02
36798;BME280;22748;8.426;99.512;2023-07-31T07:23:19;100492.50;;;32.09;59.82
36798;BME280;22748;8.426;99.512;2023-07-31T07:25:50;100489.00;;;32.09;59.93
36798;BME280;22748;8.426;99.512;2023-07-31T07:28:21;100482.06;;;32.13;59.56
36798;BME280;22748;8.426;99.512;2023-07-31T07:30:53;100483.47;;;32.15;59.97
36798;BME280;22748;8.426;99.512;2023-07-31T07:33:27;100488.75;;;32.10;59.89
36798;BME280;22748;8.426;99.512;2023-07-31T07:36:01;100483.34;;;32.10;59.32
36798;BME280;22748;8.426;99.512;2023-07-31T07:38:34;100474.66;;;32.08;59.29
36798;BME280;22748;8.426;99.512;2023-07-31T07:41:04;100488.28;;;32.13;58.82
36798;BME280;22748;8.426;99.512;2023-07-31T07:43:34;100488.88;;;32.15;58.94
36798;BME280;22748;8.426;99.512;2023-07-31T07:46:04;100475.94;;;32.17;58.30
36798;BME280;22748;8.426;99.512;2023-07-31T07:48:50;100463.97;;;32.25;58.34
36798;BME280;22748;8.426;99.512;2023-07-31T07:51:23;100453.75;;;32.27;58.37
36798;BME280;22748;8.426;99.512;2023-07-31T07:53:56;100469.50;;;32.30;58.12
36798;BME280;22748;8.426;99.512;2023-07-31T07:56:30;100471.97;;;32.32;57.78
36798;BME280;22748;8.426;99.512;2023-07-31T07:59:01;100484.19;;;32.34;58.04
36798;BME280;22748;8.426;99.512;2023-07-31T08:01:39;100483.94;;;32.36;57.80
36798;BME280;22748;8.426;99.512;2023-07-31T08:04:17;100472.88;;;32.37;57.98
36798;BME280;22748;8.426;99.512;2023-07-31T08:06:51;100473.69;;;32.38;57.83
36798;BME280;22748;8.426;99.512;2023-07-31T08:09:26;100471.56;;;32.40;58.07
36798;BME280;22748;8.426;99.512;2023-07-31T08:12:10;100470.06;;;32.44;57.72
36798;BME280;22748;8.426;99.512;2023-07-31T08:14:48;100453.25;;;32.42;56.46
36798;BME280;22748;8.426;99.512;2023-07-31T08:17:24;100455.72;;;32.44;57.43
36798;BME280;22748;8.426;99.512;2023-07-31T08:19:56;100454.41;;;32.46;57.64
36798;BME280;22748;8.426;99.512;2023-07-31T08:22:28;100446.91;;;32.48;57.47
36798;BME280;22748;8.426;99.512;2023-07-31T08:25:01;100430.84;;;32.53;56.79
36798;BME280;22748;8.426;99.512;2023-07-31T08:27:34;100430.34;;;32.56;57.43
36798;BME280;22748;8.426;99.512;2023-07-31T08:30:16;100413.53;;;32.54;56.80
36798;BME280;22748;8.426;99.512;2023-07-31T08:32:47;100422.22;;;32.56;57.36
36798;BME280;22748;8.426;99.512;2023-07-31T08:35:19;100412.59;;;32.61;57.25
36798;BME280;22748;8.426;99.512;2023-07-31T08:37:50;100415.75;;;32.57;57.15
36798;BME280;22748;8.426;99.512;2023-07-31T08:40:21;100428.44;;;32.57;57.21
36798;BME280;22748;8.426;99.512;2023-07-31T08:42:55;100435.97;;;32.55;57.49
36798;BME280;22748;8.426;99.512;2023-07-31T08:45:29;100436.34;;;32.58;57.39
36798;BME280;22748;8.426;99.512;2023-07-31T08:48:01;100425.88;;;32.62;57.33
36798;BME280;22748;8.426;99.512;2023-07-31T08:50:33;100413.50;;;32.66;56.77
36798;BME280;22748;8.426;99.512;2023-07-31T08:53:05;100407.28;;;32.66;57.20
36798;BME280;22748;8.426;99.512;2023-07-31T08:55:35;100408.09;;;32.66;57.38
36798;BME280;22748;8.426;99.512;2023-07-31T08:58:05;100415.72;;;32.69;57.47
36798;BME280;22748;8.426;99.512;2023-07-31T09:00:36;100412.78;;;32.71;57.24
36798;BME280;22748;8.426;99.512;2023-07-31T09:03:09;100409.97;;;32.66;57.34
36798;BME280;22748;8.426;99.512;2023-07-31T09:05:47;100412.78;;;32.71;57.46
36798;BME280;22748;8.426;99.512;2023-07-31T09:08:23;100412.78;;;32.71;57.70
36798;BME280;22748;8.426;99.512;2023-07-31T09:11:08;100426.06;;;32.72;57.24
36798;BME280;22748;8.426;99.512;2023-07-31T09:13:40;100437.22;;;32.76;58.77
36798;BME280;22748;8.426;99.512;2023-07-31T09:16:13;100426.88;;;32.73;59.09
36798;BME280;22748;8.426;99.512;2023-07-31T09:18:54;100432.78;;;32.70;59.97
36798;BME280;22748;8.426;99.512;2023-07-31T09:21:30;100425.72;;;32.69;60.67
36798;BME280;22748;8.426;99.512;2023-07-31T09:24:01;100415.88;;;32.63;60.67
36798;BME280;22748;8.426;99.512;2023-07-31T09:26:33;100422.59;;;32.60;60.47
36798;BME280;22748;8.426;99.512;2023-07-31T09:29:05;100424.44;;;32.59;60.94
36798;BME280;22748;8.426;99.512;2023-07-31T09:31:51;100417.88;;;32.55;60.97
36798;BME280;22748;8.426;99.512;2023-07-31T09:34:28;100414.00;;;32.51;60.88
36798;BME280;22748;8.426;99.512;2023-07-31T09:37:02;100417.31;;;32.53;60.92
36798;BME280;22748;8.426;99.512;2023-07-31T09:39:33;100417.75;;;32.50;60.65
36798;BME280;22748;8.426;99.512;2023-07-31T09:42:16;100419.88;;;32.48;61.02
36798;BME280;22748;8.426;99.512;2023-07-31T09:44:54;100418.22;;;32.47;60.92
36798;BME280;22748;8.426;99.512;2023-07-31T09:47:25;100413.28;;;32.44;60.74
36798;BME280;22748;8.426;99.512;2023-07-31T09:49:56;100406.03;;;32.45;60.85
36798;BME280;22748;8.426;99.512;2023-07-31T09:52:29;100409.19;;;32.42;60.83
36798;BME280;22748;8.426;99.512;2023-07-31T09:55:00;100397.56;;;32.41;61.12
36798;BME280;22748;8.426;99.512;2023-07-31T09:57:32;100402.16;;;32.41;61.31
36798;BME280;22748;8.426;99.512;2023-07-31T10:00:04;100397.56;;;32.41;61.54
36798;BME280;22748;8.426;99.512;2023-07-31T10:02:38;100392.16;;;32.41;61.47
36798;BME280;22748;8.426;99.512;2023-07-31T10:05:09;100399.19;;;32.42;61.31
36798;BME280;22748;8.426;99.512;2023-07-31T10:07:51;100391.34;;;32.41;61.23
36798;BME280;22748;8.426;99.512;2023-07-31T10:10:29;100401.22;;;32.35;61.39
36798;BME280;22748;8.426;99.512;2023-07-31T10:13:01;100405.09;;;32.39;61.16
36798;BME280;22748;8.426;99.512;2023-07-31T10:15:33;100420.22;;;32.40;61.22
36798;BME280;22748;8.426;99.512;2023-07-31T10:18:14;100430.00;;;32.41;61.02
36798;BME280;22748;8.426;99.512;2023-07-31T10:20:47;100432.69;;;32.41;60.67
36798;BME280;22748;8.426;99.512;2023-07-31T10:23:20;100446.22;;;32.41;61.01
36798;BME280;22748;8.426;99.512;2023-07-31T10:25:53;100452.91;;;32.38;60.70
36798;BME280;22748;8.426;99.512;2023-07-31T10:28:26;100453.72;;;32.39;60.88
36798;BME280;22748;8.426;99.512;2023-07-31T10:30:58;100451.25;;;32.37;60.76
36798;BME280;22748;8.426;99.512;2023-07-31T10:33:29;100454.78;;;32.38;60.46
36798;BME280;22748;8.426;99.512;2023-07-31T10:36:18;100450.22;;;32.38;60.01
36798;BME280;22748;8.426;99.512;2023-07-31T10:38:52;100460.19;;;32.38;59.65
36798;BME280;22748;8.426;99.512;2023-07-31T10:41:29;100460.44;;;32.36;59.78
36798;BME280;22748;8.426;99.512;2023-07-31T10:44:00;100457.97;;;32.35;59.43
36798;BME280;22748;8.426;99.512;2023-07-31T10:46:34;100459.03;;;32.34;59.15
36798;BME280;22748;8.426;99.512;2023-07-31T10:49:07;100464.44;;;32.34;59.26
36798;BME280;22748;8.426;99.512;2023-07-31T10:51:38;100470.31;;;32.31;59.82
36798;BME280;22748;8.426;99.512;2023-07-31T10:54:16;100473.50;;;32.28;59.91
36798;BME280;22748;8.426;99.512;2023-07-31T10:56:51;100475.84;;;32.24;60.04
36798;BME280;22748;8.426;99.512;2023-07-31T10:59:27;100476.06;;;32.23;59.90
36798;BME280;22748;8.426;99.512;2023-07-31T11:02:04;100479.00;;;32.21;60.41
36798;BME280;22748;8.426;99.512;2023-07-31T11:04:38;100486.88;;;32.23;60.08
36798;BME280;22748;8.426;99.512;2023-07-31T11:07:12;100490.63;;;32.22;60.21
36798;BME280;22748;8.426;99.512;2023-07-31T11:09:45;100482.31;;;32.23;60.40
36798;BME280;22748;8.426;99.512;2023-07-31T11:12:18;100498.75;;;32.22;60.24
36798;BME280;22748;8.426;99.512;2023-07-31T11:14:55;100496.84;;;32.22;60.10
36798;BME280;22748;8.426;99.512;2023-07-31T11:17:26;100497.66;;;32.23;60.08
36798;BME280;22748;8.426;99.512;2023-07-31T11:19:58;100490.63;;;32.22;60.35
36798;BME280;22748;8.426;99.512;2023-07-31T11:22:28;100493.34;;;32.22;59.97
36798;BME280;22748;8.426;99.512;2023-07-31T11:25:09;100499.78;;;32.21;60.16
36798;BME280;22748;8.426;99.512;2023-07-31T11:27:40;100507.06;;;32.20;60.72
36798;BME280;22748;8.426;99.512;2023-07-31T11:30:12;100511.06;;;32.17;61.10
36798;BME280;22748;8.426;99.512;2023-07-31T11:32:42;100501.78;;;32.13;61.68
36798;BME280;22748;8.426;99.512;2023-07-31T11:35:13;100504.97;;;32.10;62.19
36798;BME280;22748;8.426;99.512;2023-07-31T11:37:45;100501.69;;;32.08;62.23
36798;BME280;22748;8.426;99.512;2023-07-31T11:40:19;100501.09;;;32.06;62.21
36798;BME280;22748;8.426;99.512;2023-07-31T11:42:49;100492.50;;;32.09;62.25
36798;BME280;22748;8.426;99.512;2023-07-31T11:45:26;100486.78;;;32.06;61.63
36798;BME280;22748;8.426;99.512;2023-07-31T11:47:58;100492.88;;;32.01;61.92
36798;BME280;22748;8.426;99.512;2023-07-31T11:50:29;100499.75;;;31.97;62.42
36798;BME280;22748;8.426;99.512;2023-07-31T11:53:08;100498.91;;;31.96;62.50
36798;BME280;22748;8.426;99.512;2023-07-31T11:55:47;100501.50;;;31.91;62.62
36798;BME280;22748;8.426;99.512;2023-07-31T11:58:31;100498.59;;;31.93;62.68
36798;BME280;22748;8.426;99.512;2023-07-31T12:01:03;100514.78;;;31.93;62.99
36798;BME280;22748;8.426;99.512;2023-07-31T12:03:42;100521.00;;;31.93;63.45
36798;BME280;22748;8.426;99.512;2023-07-31T12:06:13;100520.53;;;31.96;63.49
36798;BME280;22748;8.426;99.512;2023-07-31T12:08:43;100534.63;;;31.87;63.14
36798;BME280;22748;8.426;99.512;2023-07-31T12:11:27;100536.13;;;31.83;63.02
36798;BME280;22748;8.426;99.512;2023-07-31T12:13:59;100544.81;;;31.85;63.01
36798;BME280;22748;8.426;99.512;2023-07-31T12:16:41;100549.03;;;31.81;63.39
36798;BME280;22748;8.426;99.512;2023-07-31T12:19:11;100553.03;;;31.78;63.53
36798;BME280;22748;8.426;99.512;2023-07-31T12:21:45;100551.28;;;31.84;63.51
36798;BME280;22748;8.426;99.512;2023-07-31T12:24:18;100564.91;;;31.89;63.18
36798;BME280;22748;8.426;99.512;2023-07-31T12:26:51;100568.66;;;31.88;63.60
36798;BME280;22748;8.426;99.512;2023-07-31T12:29:23;100564.91;;;31.89;63.48
36798;BME280;22748;8.426;99.512;2023-07-31T12:31:53;100572.19;;;31.88;63.58
36798;BME280;22748;8.426;99.512;2023-07-31T12:34:24;100581.72;;;31.91;63.55
36798;BME280;22748;8.426;99.512;2023-07-31T12:36:54;100594.16;;;31.92;63.40
36798;BME280;22748;8.426;99.512;2023-07-31T12:39:25;100588.03;;;31.85;63.67
36798;BME280;22748;8.426;99.512;2023-07-31T12:41:58;100586.84;;;31.81;63.78
36798;BME280;22748;8.426;99.512;2023-07-31T12:44:27;100586.63;;;31.82;63.68
36798;BME280;22748;8.426;99.512;2023-07-31T12:46:58;100584.97;;;31.81;63.63
36798;BME280;22748;8.426;99.512;2023-07-31T12:49:29;100591.97;;;31.70;64.15
36798;BME280;22748;8.426;99.512;2023-07-31T12:52:00;100592.81;;;31.71;64.02
36798;BME280;22748;8.426;99.512;2023-07-31T12:54:30;100600.66;;;31.72;64.00
36798;BME280;22748;8.426;99.512;2023-07-31T12:57:03;100607.84;;;31.78;64.04
36798;BME280;22748;8.426;99.512;2023-07-31T12:59:33;100617.97;;;31.83;63.83
36798;BME280;22748;8.426;99.512;2023-07-31T13:02:03;100614.75;;;31.74;64.08
36798;BME280;22748;8.426;99.512;2023-07-31T13:04:32;100620.63;;;31.71;63.91
36798;BME280;22748;8.426;99.512;2023-07-31T13:07:02;100628.25;;;31.74;63.65
36798;BME280;22748;8.426;99.512;2023-07-31T13:09:32;100635.91;;;31.77;63.85
36798;BME280;22748;8.426;99.512;2023-07-31T13:12:06;100638.38;;;31.79;63.67
36798;BME280;22748;8.426;99.512;2023-07-31T13:14:37;100637.13;;;31.82;63.96
36798;BME280;22748;8.426;99.512;2023-07-31T13:17:07;100645.22;;;31.82;63.71
36798;BME280;22748;8.426;99.512;2023-07-31T13:19:37;100647.06;;;31.81;64.11
36798;BME280;22748;8.426;99.512;2023-07-31T13:22:07;100649.16;;;31.79;64.25
36798;BME280;22748;8.426;99.512;2023-07-31T13:24:37;100639.44;;;31.78;64.21